sensor_id;sensor_type;location;lat;lon;timestamp;P1;durP1;ratioP1;P2;durP2;ratioP2
38465;SDS011;24244;51.950;5.902;2024-01-06T00:00:35;12.82;;;5.93;;
38465;SDS011;24244;51.950;5.902;2024-01-06T00:03:03;12.88;;;5.47;;
38465;SDS011;24244;51.950;5.902;2024-01-06T00:05:31;9.05;;;4.40;;
38465;SDS011;24244;51.950;5.902;2024-01-06T00:07:58;10.68;;;4.55;;
38465;SDS011;24244;51.950;5.902;2024-01-06T00:10:26;12.07;;;5.00;;
38465;SDS011;24244;51.950;5.902;2024-01-06T00:12:53;9.48;;;4.55;;
38465;SDS011;24244;51.950;5.902;2024-01-06T00:15:20;10.15;;;4.05;;
38465;SDS011;24244;51.950;5.902;2024-01-06T00:17:47;11.25;;;4.03;;
38465;SDS011;24244;51.950;5.902;2024-01-06T00:20:14;9.77;;;4.32;;
38465;SDS011;24244;51.950;5.902;2024-01-06T00:22:41;10.60;;;4.25;;
38465;SDS011;24244;51.950;5.902;2024-01-06T00:25:10;10.48;;;4.95;;
38465;SDS011;24244;51.950;5.902;2024-01-06T00:27:39;11.05;;;4.78;;
38465;SDS011;24244;51.950;5.902;2024-01-06T00:30:06;11.57;;;4.80;;
38465;SDS011;24244;51.950;5.902;2024-01-06T00:32:34;11.48;;;4.72;;
38465;SDS011;24244;51.950;5.902;2024-01-06T00:35:04;10.18;;;4.40;;
38465;SDS011;24244;51.950;5.902;2024-01-06T00:37:31;11.05;;;5.13;;
38465;SDS011;24244;51.950;5.902;2024-01-06T00:39:59;10.18;;;4.65;;
38465;SDS011;24244;51.950;5.902;2024-01-06T00:42:26;11.38;;;5.80;;
38465;SDS011;24244;51.950;5.902;2024-01-06T00:44:54;11.82;;;5.05;;
38465;SDS011;24244;51.950;5.902;2024-01-06T00:47:21;10.63;;;4.97;;
38465;SDS011;24244;51.950;5.902;2024-01-06T00:49:50;10.63;;;4.78;;
38465;SDS011;24244;51.950;5.902;2024-01-06T00:52:18;10.18;;;4.50;;
38465;SDS011;24244;51.950;5.902;2024-01-06T00:54:45;9.40;;;4.15;;
38465;SDS011;24244;51.950;5.902;2024-01-06T00:57:13;11.35;;;5.32;;
38465;SDS011;24244;51.950;5.902;2024-01-06T00:59:40;9.45;;;4.45;;
38465;SDS011;24244;51.950;5.902;2024-01-06T01:02:09;10.27;;;4.22;;
38465;SDS011;24244;51.950;5.902;2024-01-06T01:04:36;10.13;;;4.80;;
38465;SDS011;24244;51.950;5.902;2024-01-06T01:07:03;7.82;;;3.47;;
38465;SDS011;24244;51.950;5.902;2024-01-06T01:09:30;10.98;;;5.25;;
38465;SDS011;24244;51.950;5.902;2024-01-06T01:11:57;11.23;;;5.07;;
38465;SDS011;24244;51.950;5.902;2024-01-06T01:14:24;11.85;;;4.93;;
38465;SDS011;24244;51.950;5.902;2024-01-06T01:16:51;12.65;;;4.95;;
38465;SDS011;24244;51.950;5.902;2024-01-06T01:19:19;12.27;;;4.30;;
38465;SDS011;24244;51.950;5.902;2024-01-06T01:21:46;10.07;;;4.57;;
38465;SDS011;24244;51.950;5.902;2024-01-06T01:24:13;10.65;;;4.60;;
38465;SDS011;24244;51.950;5.902;2024-01-06T01:26:40;9.52;;;3.50;;
38465;SDS011;24244;51.950;5.902;2024-01-06T01:29:07;10.85;;;3.95;;
38465;SDS011;24244;51.950;5.902;2024-01-06T01:31:34;8.48;;;3.60;;
38465;SDS011;24244;51.950;5.902;2024-01-06T01:34:02;7.85;;;3.42;;
38465;SDS011;24244;51.950;5.902;2024-01-06T01:36:31;7.78;;;3.55;;
38465;SDS011;24244;51.950;5.902;2024-01-06T01:38:58;8.30;;;3.88;;
38465;SDS011;24244;51.950;5.902;2024-01-06T01:41:25;6.55;;;2.65;;
38465;SDS011;24244;51.950;5.902;2024-01-06T01:43:52;9.43;;;4.40;;
38465;SDS011;24244;51.950;5.902;2024-01-06T01:46:25;7.90;;;3.25;;
38465;SDS011;24244;51.950;5.902;2024-01-06T01:48:53;8.70;;;3.53;;
38465;SDS011;24244;51.950;5.902;2024-01-06T01:51:21;9.15;;;4.78;;
38465;SDS011;24244;51.950;5.902;2024-01-06T01:53:52;8.02;;;3.28;;
38465;SDS011;24244;51.950;5.902;2024-01-06T01:56:19;8.23;;;3.25;;
38465;SDS011;24244;51.950;5.902;2024-01-06T01:58:47;8.73;;;5.00;;
38465;SDS011;24244;51.950;5.902;2024-01-06T02:01:14;10.85;;;4.43;;
38465;SDS011;24244;51.950;5.902;2024-01-06T02:03:42;7.90;;;2.85;;
38465;SDS011;24244;51.950;5.902;2024-01-06T02:06:12;11.80;;;4.88;;
38465;SDS011;24244;51.950;5.902;2024-01-06T02:08:39;6.95;;;3.25;;
38465;SDS011;24244;51.950;5.902;2024-01-06T02:11:08;8.90;;;4.03;;
38465;SDS011;24244;51.950;5.902;2024-01-06T02:13:35;11.10;;;4.15;;
38465;SDS011;24244;51.950;5.902;2024-01-06T02:16:04;9.85;;;4.22;;
38465;SDS011;24244;51.950;5.902;2024-01-06T02:18:32;10.63;;;4.72;;
38465;SDS011;24244;51.950;5.902;2024-01-06T02:21:00;7.43;;;3.80;;
38465;SDS011;24244;51.950;5.902;2024-01-06T02:23:29;10.23;;;4.57;;
38465;SDS011;24244;51.950;5.902;2024-01-06T02:25:56;10.60;;;4.03;;
38465;SDS011;24244;51.950;5.902;2024-01-06T02:28:23;10.63;;;4.45;;
38465;SDS011;24244;51.950;5.902;2024-01-06T02:30:50;12.10;;;4.68;;
38465;SDS011;24244;51.950;5.902;2024-01-06T02:33:17;10.23;;;4.75;;
38465;SDS011;24244;51.950;5.902;2024-01-06T02:35:46;12.13;;;4.70;;
38465;SDS011;24244;51.950;5.902;2024-01-06T02:38:13;12.43;;;5.18;;
38465;SDS011;24244;51.950;5.902;2024-01-06T02:40:42;14.80;;;5.13;;
38465;SDS011;24244;51.950;5.902;2024-01-06T02:43:09;11.52;;;5.38;;
38465;SDS011;24244;51.950;5.902;2024-01-06T02:45:36;12.27;;;5.30;;
38465;SDS011;24244;51.950;5.902;2024-01-06T02:48:04;13.10;;;5.63;;
38465;SDS011;24244;51.950;5.902;2024-01-06T02:50:31;13.52;;;4.53;;
38465;SDS011;24244;51.950;5.902;2024-01-06T02:52:58;12.40;;;5.60;;
38465;SDS011;24244;51.950;5.902;2024-01-06T02:55:25;10.98;;;4.53;;
38465;SDS011;24244;51.950;5.902;2024-01-06T02:57:59;14.57;;;6.18;;
38465;SDS011;24244;51.950;5.902;2024-01-06T03:00:26;12.43;;;4.95;;
38465;SDS011;24244;51.950;5.902;2024-01-06T03:02:53;13.15;;;5.35;;
38465;SDS011;24244;51.950;5.902;2024-01-06T03:05:20;18.38;;;6.57;;
38465;SDS011;24244;51.950;5.902;2024-01-06T03:07:47;14.07;;;5.80;;
38465;SDS011;24244;51.950;5.902;2024-01-06T03:10:14;13.77;;;5.70;;
38465;SDS011;24244;51.950;5.902;2024-01-06T03:12:41;11.85;;;5.93;;
38465;SDS011;24244;51.950;5.902;2024-01-06T03:15:09;13.05;;;6.45;;
38465;SDS011;24244;51.950;5.902;2024-01-06T03:17:38;12.57;;;5.57;;
38465;SDS011;24244;51.950;5.902;2024-01-06T03:20:05;15.73;;;6.22;;
38465;SDS011;24244;51.950;5.902;2024-01-06T03:22:33;15.70;;;6.47;;
38465;SDS011;24244;51.950;5.902;2024-01-06T03:25:01;16.50;;;6.97;;
38465;SDS011;24244;51.950;5.902;2024-01-06T03:27:28;16.20;;;6.68;;
38465;SDS011;24244;51.950;5.902;2024-01-06T03:29:55;14.82;;;6.18;;
38465;SDS011;24244;51.950;5.902;2024-01-06T03:32:24;15.55;;;6.28;;
38465;SDS011;24244;51.950;5.902;2024-01-06T03:34:51;13.68;;;5.63;;
38465;SDS011;24244;51.950;5.902;2024-01-06T03:37:18;14.15;;;6.05;;
38465;SDS011;24244;51.950;5.902;2024-01-06T03:39:46;11.70;;;5.40;;
38465;SDS011;24244;51.950;5.902;2024-01-06T03:42:13;16.40;;;6.25;;
38465;SDS011;24244;51.950;5.902;2024-01-06T03:44:40;10.60;;;4.40;;
38465;SDS011;24244;51.950;5.902;2024-01-06T03:47:07;17.25;;;6.20;;
38465;SDS011;24244;51.950;5.902;2024-01-06T03:49:35;15.82;;;6.55;;
38465;SDS011;24244;51.950;5.902;2024-01-06T03:52:03;12.70;;;5.38;;
38465;SDS011;24244;51.950;5.902;2024-01-06T03:54:30;12.60;;;4.82;;
38465;SDS011;24244;51.950;5.902;2024-01-06T03:56:57;11.70;;;5.40;;
38465;SDS011;24244;51.950;5.902;2024-01-06T03:59:24;14.82;;;6.20;;
38465;SDS011;24244;51.950;5.902;2024-01-06T04:01:52;13.60;;;5.47;;
38465;SDS011;24244;51.950;5.902;2024-01-06T04:04:19;15.45;;;5.90;;
38465;SDS011;24244;51.950;5.902;2024-01-06T04:06:48;14.82;;;5.60;;
38465;SDS011;24244;51.950;5.902;2024-01-06T04:09:15;16.80;;;6.38;;
38465;SDS011;24244;51.950;5.902;2024-01-06T04:11:44;13.35;;;5.28;;
38465;SDS011;24244;51.950;5.902;2024-01-06T04:14:11;15.40;;;6.45;;
38465;SDS011;24244;51.950;5.902;2024-01-06T04:16:38;13.40;;;5.65;;
38465;SDS011;24244;51.950;5.902;2024-01-06T04:19:04;18.73;;;6.65;;
38465;SDS011;24244;51.950;5.902;2024-01-06T04:21:35;16.17;;;5.93;;
38465;SDS011;24244;51.950;5.902;2024-01-06T04:24:04;14.15;;;5.20;;
38465;SDS011;24244;51.950;5.902;2024-01-06T04:26:31;14.52;;;6.50;;
38465;SDS011;24244;51.950;5.902;2024-01-06T04:28:58;19.20;;;8.50;;
38465;SDS011;24244;51.950;5.902;2024-01-06T04:31:25;20.85;;;7.57;;
38465;SDS011;24244;51.950;5.902;2024-01-06T04:33:52;19.15;;;7.70;;
38465;SDS011;24244;51.950;5.902;2024-01-06T04:36:19;21.67;;;8.75;;
38465;SDS011;24244;51.950;5.902;2024-01-06T04:38:46;22.45;;;8.63;;
38465;SDS011;24244;51.950;5.902;2024-01-06T04:41:14;21.50;;;7.72;;
38465;SDS011;24244;51.950;5.902;2024-01-06T04:43:41;16.17;;;6.70;;
38465;SDS011;24244;51.950;5.902;2024-01-06T04:46:08;15.35;;;6.57;;
38465;SDS011;24244;51.950;5.902;2024-01-06T04:48:35;20.73;;;8.38;;
38465;SDS011;24244;51.950;5.902;2024-01-06T04:51:02;22.52;;;8.73;;
38465;SDS011;24244;51.950;5.902;2024-01-06T04:53:30;19.80;;;7.47;;
38465;SDS011;24244;51.950;5.902;2024-01-06T04:55:57;20.85;;;8.55;;
38465;SDS011;24244;51.950;5.902;2024-01-06T04:58:25;17.77;;;7.60;;
38465;SDS011;24244;51.950;5.902;2024-01-06T05:00:52;22.08;;;7.65;;
38465;SDS011;24244;51.950;5.902;2024-01-06T05:03:19;16.00;;;6.78;;
38465;SDS011;24244;51.950;5.902;2024-01-06T05:05:46;18.73;;;8.45;;
38465;SDS011;24244;51.950;5.902;2024-01-06T05:08:13;16.95;;;6.95;;
38465;SDS011;24244;51.950;5.902;2024-01-06T05:10:40;17.58;;;7.05;;
38465;SDS011;24244;51.950;5.902;2024-01-06T05:13:07;17.50;;;7.95;;
38465;SDS011;24244;51.950;5.902;2024-01-06T05:15:35;16.65;;;6.93;;
38465;SDS011;24244;51.950;5.902;2024-01-06T05:18:03;15.82;;;5.72;;
38465;SDS011;24244;51.950;5.902;2024-01-06T05:20:30;12.48;;;4.88;;
38465;SDS011;24244;51.950;5.902;2024-01-06T05:22:57;9.70;;;4.75;;
38465;SDS011;24244;51.950;5.902;2024-01-06T05:25:24;11.55;;;4.53;;
38465;SDS011;24244;51.950;5.902;2024-01-06T05:27:51;13.13;;;5.43;;
38465;SDS011;24244;51.950;5.902;2024-01-06T05:30:18;11.50;;;4.90;;
38465;SDS011;24244;51.950;5.902;2024-01-06T05:32:46;13.05;;;5.00;;
38465;SDS011;24244;51.950;5.902;2024-01-06T05:35:13;11.88;;;4.53;;
38465;SDS011;24244;51.950;5.902;2024-01-06T05:37:42;11.77;;;5.80;;
38465;SDS011;24244;51.950;5.902;2024-01-06T05:40:09;14.00;;;5.55;;
38465;SDS011;24244;51.950;5.902;2024-01-06T05:42:36;12.48;;;5.15;;
38465;SDS011;24244;51.950;5.902;2024-01-06T05:45:03;14.20;;;5.72;;
38465;SDS011;24244;51.950;5.902;2024-01-06T05:47:30;13.30;;;5.55;;
38465;SDS011;24244;51.950;5.902;2024-01-06T05:49:59;13.35;;;5.15;;
38465;SDS011;24244;51.950;5.902;2024-01-06T05:52:25;15.23;;;6.40;;
38465;SDS011;24244;51.950;5.902;2024-01-06T05:54:53;15.00;;;6.50;;
38465;SDS011;24244;51.950;5.902;2024-01-06T05:57:19;16.42;;;6.40;;
38465;SDS011;24244;51.950;5.902;2024-01-06T05:59:46;13.52;;;5.38;;
38465;SDS011;24244;51.950;5.902;2024-01-06T06:02:13;13.30;;;6.03;;
38465;SDS011;24244;51.950;5.902;2024-01-06T06:04:40;13.18;;;5.32;;
38465;SDS011;24244;51.950;5.902;2024-01-06T06:07:12;10.23;;;5.32;;
38465;SDS011;24244;51.950;5.902;2024-01-06T06:09:39;10.73;;;4.65;;
38465;SDS011;24244;51.950;5.902;2024-01-06T06:12:07;12.27;;;4.88;;
38465;SDS011;24244;51.950;5.902;2024-01-06T06:14:34;12.75;;;5.28;;
38465;SDS011;24244;51.950;5.902;2024-01-06T06:17:01;14.93;;;6.15;;
38465;SDS011;24244;51.950;5.902;2024-01-06T06:19:28;13.57;;;6.20;;
38465;SDS011;24244;51.950;5.902;2024-01-06T06:21:55;12.05;;;4.93;;
38465;SDS011;24244;51.950;5.902;2024-01-06T06:24:24;11.10;;;5.10;;
38465;SDS011;24244;51.950;5.902;2024-01-06T06:26:51;11.13;;;5.72;;
38465;SDS011;24244;51.950;5.902;2024-01-06T06:29:18;10.88;;;5.18;;
38465;SDS011;24244;51.950;5.902;2024-01-06T06:31:47;10.88;;;4.95;;
38465;SDS011;24244;51.950;5.902;2024-01-06T06:34:15;12.57;;;5.22;;
38465;SDS011;24244;51.950;5.902;2024-01-06T06:36:42;13.18;;;5.45;;
38465;SDS011;24244;51.950;5.902;2024-01-06T06:39:09;10.60;;;4.88;;
38465;SDS011;24244;51.950;5.902;2024-01-06T06:41:38;12.40;;;5.40;;
38465;SDS011;24244;51.950;5.902;2024-01-06T06:44:05;11.32;;;5.07;;
38465;SDS011;24244;51.950;5.902;2024-01-06T06:46:32;11.48;;;5.57;;
38465;SDS011;24244;51.950;5.902;2024-01-06T06:49:00;12.43;;;6.50;;
38465;SDS011;24244;51.950;5.902;2024-01-06T06:51:28;11.10;;;5.18;;
38465;SDS011;24244;51.950;5.902;2024-01-06T06:53:56;12.95;;;5.32;;
38465;SDS011;24244;51.950;5.902;2024-01-06T06:56:23;13.93;;;5.68;;
38465;SDS011;24244;51.950;5.902;2024-01-06T06:58:51;10.32;;;4.45;;
38465;SDS011;24244;51.950;5.902;2024-01-06T07:01:19;11.73;;;5.32;;
38465;SDS011;24244;51.950;5.902;2024-01-06T07:03:46;10.05;;;4.50;;
38465;SDS011;24244;51.950;5.902;2024-01-06T07:06:14;14.38;;;5.80;;
38465;SDS011;24244;51.950;5.902;2024-01-06T07:08:41;10.93;;;5.13;;
38465;SDS011;24244;51.950;5.902;2024-01-06T07:11:08;11.15;;;4.90;;
38465;SDS011;24244;51.950;5.902;2024-01-06T07:13:38;10.95;;;5.38;;
38465;SDS011;24244;51.950;5.902;2024-01-06T07:16:07;12.30;;;6.10;;
38465;SDS011;24244;51.950;5.902;2024-01-06T07:18:44;11.55;;;5.35;;
38465;SDS011;24244;51.950;5.902;2024-01-06T07:21:12;11.90;;;6.88;;
38465;SDS011;24244;51.950;5.902;2024-01-06T07:23:39;12.20;;;5.55;;
38465;SDS011;24244;51.950;5.902;2024-01-06T07:26:06;11.98;;;6.53;;
38465;SDS011;24244;51.950;5.902;2024-01-06T07:28:34;12.20;;;5.85;;
38465;SDS011;24244;51.950;5.902;2024-01-06T07:31:03;11.30;;;5.05;;
38465;SDS011;24244;51.950;5.902;2024-01-06T07:33:33;10.68;;;5.80;;
38465;SDS011;24244;51.950;5.902;2024-01-06T07:36:00;10.43;;;5.05;;
38465;SDS011;24244;51.950;5.902;2024-01-06T07:38:27;11.88;;;6.40;;
38465;SDS011;24244;51.950;5.902;2024-01-06T07:40:54;10.57;;;5.22;;
38465;SDS011;24244;51.950;5.902;2024-01-06T07:43:21;10.85;;;4.57;;
38465;SDS011;24244;51.950;5.902;2024-01-06T07:45:48;10.38;;;5.07;;
38465;SDS011;24244;51.950;5.902;2024-01-06T07:48:15;10.45;;;5.30;;
38465;SDS011;24244;51.950;5.902;2024-01-06T07:50:44;10.88;;;5.47;;
38465;SDS011;24244;51.950;5.902;2024-01-06T07:53:12;10.18;;;5.10;;
38465;SDS011;24244;51.950;5.902;2024-01-06T07:55:40;10.98;;;4.78;;
38465;SDS011;24244;51.950;5.902;2024-01-06T07:58:07;10.93;;;5.25;;
38465;SDS011;24244;51.950;5.902;2024-01-06T08:00:34;9.18;;;4.13;;
38465;SDS011;24244;51.950;5.902;2024-01-06T08:03:01;12.00;;;5.53;;
38465;SDS011;24244;51.950;5.902;2024-01-06T08:05:31;10.45;;;5.18;;
38465;SDS011;24244;51.950;5.902;2024-01-06T08:07:59;10.60;;;4.88;;
38465;SDS011;24244;51.950;5.902;2024-01-06T08:10:26;11.55;;;5.22;;
38465;SDS011;24244;51.950;5.902;2024-01-06T08:12:53;10.95;;;5.18;;
38465;SDS011;24244;51.950;5.902;2024-01-06T08:15:21;11.07;;;4.85;;
38465;SDS011;24244;51.950;5.902;2024-01-06T08:17:48;11.10;;;5.35;;
38465;SDS011;24244;51.950;5.902;2024-01-06T08:20:15;9.65;;;4.60;;
38465;SDS011;24244;51.950;5.902;2024-01-06T08:22:42;9.90;;;4.70;;
38465;SDS011;24244;51.950;5.902;2024-01-06T08:25:10;10.15;;;4.88;;
38465;SDS011;24244;51.950;5.902;2024-01-06T08:27:37;14.00;;;5.13;;
38465;SDS011;24244;51.950;5.902;2024-01-06T08:30:04;9.95;;;4.15;;
38465;SDS011;24244;51.950;5.902;2024-01-06T08:32:32;9.73;;;4.28;;
38465;SDS011;24244;51.950;5.902;2024-01-06T08:34:59;10.77;;;4.25;;
38465;SDS011;24244;51.950;5.902;2024-01-06T08:37:26;10.73;;;4.68;;
38465;SDS011;24244;51.950;5.902;2024-01-06T08:39:53;10.98;;;4.82;;
38465;SDS011;24244;51.950;5.902;2024-01-06T08:42:21;9.45;;;4.10;;
38465;SDS011;24244;51.950;5.902;2024-01-06T08:44:50;12.50;;;4.50;;
38465;SDS011;24244;51.950;5.902;2024-01-06T08:47:17;12.55;;;5.03;;
38465;SDS011;24244;51.950;5.902;2024-01-06T08:49:43;9.55;;;4.55;;
38465;SDS011;24244;51.950;5.902;2024-01-06T08:52:10;12.23;;;5.10;;
38465;SDS011;24244;51.950;5.902;2024-01-06T08:54:41;10.15;;;4.95;;
38465;SDS011;24244;51.950;5.902;2024-01-06T08:57:07;10.25;;;4.18;;
38465;SDS011;24244;51.950;5.902;2024-01-06T08:59:36;11.27;;;4.53;;
38465;SDS011;24244;51.950;5.902;2024-01-06T09:02:03;11.52;;;4.60;;
38465;SDS011;24244;51.950;5.902;2024-01-06T09:04:30;13.57;;;5.57;;
38465;SDS011;24244;51.950;5.902;2024-01-06T09:06:57;11.73;;;4.90;;
38465;SDS011;24244;51.950;5.902;2024-01-06T09:09:24;13.30;;;5.72;;
38465;SDS011;24244;51.950;5.902;2024-01-06T09:11:51;12.70;;;4.47;;
38465;SDS011;24244;51.950;5.902;2024-01-06T09:14:19;13.82;;;5.65;;
38465;SDS011;24244;51.950;5.902;2024-01-06T09:16:48;13.77;;;5.55;;
38465;SDS011;24244;51.950;5.902;2024-01-06T09:19:15;10.93;;;4.68;;
38465;SDS011;24244;51.950;5.902;2024-01-06T09:21:43;13.23;;;4.75;;
38465;SDS011;24244;51.950;5.902;2024-01-06T09:24:11;14.43;;;5.88;;
38465;SDS011;24244;51.950;5.902;2024-01-06T09:26:38;10.48;;;3.97;;
38465;SDS011;24244;51.950;5.902;2024-01-06T09:29:05;13.32;;;5.43;;
38465;SDS011;24244;51.950;5.902;2024-01-06T09:31:32;11.75;;;5.20;;
38465;SDS011;24244;51.950;5.902;2024-01-06T09:34:02;14.88;;;5.07;;
38465;SDS011;24244;51.950;5.902;2024-01-06T09:36:30;13.52;;;5.15;;
38465;SDS011;24244;51.950;5.902;2024-01-06T09:38:58;9.40;;;3.90;;
38465;SDS011;24244;51.950;5.902;2024-01-06T09:41:25;14.10;;;5.82;;
38465;SDS011;24244;51.950;5.902;2024-01-06T09:43:52;10.63;;;4.63;;
38465;SDS011;24244;51.950;5.902;2024-01-06T09:46:21;14.43;;;6.20;;
38465;SDS011;24244;51.950;5.902;2024-01-06T09:48:54;14.10;;;5.60;;
38465;SDS011;24244;51.950;5.902;2024-01-06T09:51:23;12.40;;;5.47;;
38465;SDS011;24244;51.950;5.902;2024-01-06T09:54:05;14.00;;;5.55;;
38465;SDS011;24244;51.950;5.902;2024-01-06T09:56:39;13.80;;;5.22;;
38465;SDS011;24244;51.950;5.902;2024-01-06T09:59:06;10.40;;;4.95;;
38465;SDS011;24244;51.950;5.902;2024-01-06T10:01:33;14.52;;;6.55;;
38465;SDS011;24244;51.950;5.902;2024-01-06T10:04:00;12.60;;;5.35;;
38465;SDS011;24244;51.950;5.902;2024-01-06T10:06:29;14.98;;;5.63;;
38465;SDS011;24244;51.950;5.902;2024-01-06T10:08:56;17.17;;;6.53;;
38465;SDS011;24244;51.950;5.902;2024-01-06T10:11:23;11.55;;;5.53;;
38465;SDS011;24244;51.950;5.902;2024-01-06T10:13:50;13.52;;;5.85;;
38465;SDS011;24244;51.950;5.902;2024-01-06T10:16:18;14.82;;;6.50;;
38465;SDS011;24244;51.950;5.902;2024-01-06T10:18:46;14.75;;;5.85;;
38465;SDS011;24244;51.950;5.902;2024-01-06T10:21:19;16.67;;;6.53;;
38465;SDS011;24244;51.950;5.902;2024-01-06T10:23:48;16.05;;;6.03;;
38465;SDS011;24244;51.950;5.902;2024-01-06T10:26:15;14.27;;;6.18;;
38465;SDS011;24244;51.950;5.902;2024-01-06T10:28:42;13.18;;;5.65;;
38465;SDS011;24244;51.950;5.902;2024-01-06T10:31:09;13.02;;;6.25;;
38465;SDS011;24244;51.950;5.902;2024-01-06T10:33:36;13.43;;;5.65;;
38465;SDS011;24244;51.950;5.902;2024-01-06T10:36:03;15.55;;;6.85;;
38465;SDS011;24244;51.950;5.902;2024-01-06T10:38:32;14.55;;;7.07;;
38465;SDS011;24244;51.950;5.902;2024-01-06T10:41:03;15.07;;;6.70;;
38465;SDS011;24244;51.950;5.902;2024-01-06T10:43:34;14.35;;;6.32;;
38465;SDS011;24244;51.950;5.902;2024-01-06T10:46:04;15.80;;;6.82;;
38465;SDS011;24244;51.950;5.902;2024-01-06T10:48:31;12.02;;;5.97;;
38465;SDS011;24244;51.950;5.902;2024-01-06T10:51:00;12.40;;;6.10;;
38465;SDS011;24244;51.950;5.902;2024-01-06T10:53:28;8.77;;;4.70;;
38465;SDS011;24244;51.950;5.902;2024-01-06T10:55:57;14.38;;;6.40;;
38465;SDS011;24244;51.950;5.902;2024-01-06T10:58:26;14.20;;;6.78;;
38465;SDS011;24244;51.950;5.902;2024-01-06T11:00:55;11.55;;;5.18;;
38465;SDS011;24244;51.950;5.902;2024-01-06T11:03:23;15.80;;;6.63;;
38465;SDS011;24244;51.950;5.902;2024-01-06T11:05:51;12.63;;;6.13;;
38465;SDS011;24244;51.950;5.902;2024-01-06T11:08:19;15.75;;;6.35;;
38465;SDS011;24244;51.950;5.902;2024-01-06T11:10:48;12.00;;;5.63;;
38465;SDS011;24244;51.950;5.902;2024-01-06T11:13:15;14.07;;;6.18;;
38465;SDS011;24244;51.950;5.902;2024-01-06T11:15:51;13.05;;;5.68;;
38465;SDS011;24244;51.950;5.902;2024-01-06T11:18:32;11.50;;;5.55;;
38465;SDS011;24244;51.950;5.902;2024-01-06T11:21:14;13.52;;;6.50;;
38465;SDS011;24244;51.950;5.902;2024-01-06T11:26:42;12.38;;;5.50;;
38465;SDS011;24244;51.950;5.902;2024-01-06T11:29:10;10.75;;;6.00;;
38465;SDS011;24244;51.950;5.902;2024-01-06T11:31:39;13.02;;;6.18;;
38465;SDS011;24244;51.950;5.902;2024-01-06T11:34:14;13.60;;;6.40;;
38465;SDS011;24244;51.950;5.902;2024-01-06T11:36:43;11.65;;;4.18;;
38465;SDS011;24244;51.950;5.902;2024-01-06T11:42:02;12.43;;;5.93;;
38465;SDS011;24244;51.950;5.902;2024-01-06T11:44:33;11.75;;;5.88;;
38465;SDS011;24244;51.950;5.902;2024-01-06T11:47:02;12.95;;;7.30;;
38465;SDS011;24244;51.950;5.902;2024-01-06T11:49:31;11.95;;;6.15;;
38465;SDS011;24244;51.950;5.902;2024-01-06T11:51:58;15.57;;;6.15;;
38465;SDS011;24244;51.950;5.902;2024-01-06T11:54:27;11.23;;;6.35;;
38465;SDS011;24244;51.950;5.902;2024-01-06T11:56:54;15.32;;;6.15;;
38465;SDS011;24244;51.950;5.902;2024-01-06T11:59:22;12.48;;;5.88;;
38465;SDS011;24244;51.950;5.902;2024-01-06T12:01:49;11.60;;;5.57;;
38465;SDS011;24244;51.950;5.902;2024-01-06T12:04:19;11.32;;;5.43;;
38465;SDS011;24244;51.950;5.902;2024-01-06T12:06:48;13.27;;;5.65;;
38465;SDS011;24244;51.950;5.902;2024-01-06T12:09:16;10.90;;;5.22;;
38465;SDS011;24244;51.950;5.902;2024-01-06T12:11:46;9.80;;;5.18;;
38465;SDS011;24244;51.950;5.902;2024-01-06T12:14:13;11.68;;;5.43;;
38465;SDS011;24244;51.950;5.902;2024-01-06T12:16:40;11.18;;;5.55;;
38465;SDS011;24244;51.950;5.902;2024-01-06T12:19:07;10.77;;;5.38;;
38465;SDS011;24244;51.950;5.902;2024-01-06T12:21:35;10.27;;;4.95;;
38465;SDS011;24244;51.950;5.902;2024-01-06T12:24:15;11.88;;;5.63;;
38465;SDS011;24244;51.950;5.902;2024-01-06T12:26:47;10.60;;;5.03;;
38465;SDS011;24244;51.950;5.902;2024-01-06T12:29:16;11.70;;;5.78;;
38465;SDS011;24244;51.950;5.902;2024-01-06T12:31:44;11.60;;;5.90;;
38465;SDS011;24244;51.950;5.902;2024-01-06T12:34:11;11.00;;;5.20;;
38465;SDS011;24244;51.950;5.902;2024-01-06T12:36:40;13.30;;;6.07;;
38465;SDS011;24244;51.950;5.902;2024-01-06T12:39:10;12.55;;;6.10;;
38465;SDS011;24244;51.950;5.902;2024-01-06T12:41:40;13.77;;;6.95;;
38465;SDS011;24244;51.950;5.902;2024-01-06T12:44:08;12.57;;;5.55;;
38465;SDS011;24244;51.950;5.902;2024-01-06T12:46:35;13.45;;;5.90;;
38465;SDS011;24244;51.950;5.902;2024-01-06T12:49:02;14.60;;;6.78;;
38465;SDS011;24244;51.950;5.902;2024-01-06T12:51:29;12.38;;;5.88;;
38465;SDS011;24244;51.950;5.902;2024-01-06T12:53:58;11.05;;;5.85;;
38465;SDS011;24244;51.950;5.902;2024-01-06T12:56:25;16.10;;;7.28;;
38465;SDS011;24244;51.950;5.902;2024-01-06T12:58:52;14.35;;;6.38;;
38465;SDS011;24244;51.950;5.902;2024-01-06T13:01:19;12.50;;;6.18;;
38465;SDS011;24244;51.950;5.902;2024-01-06T13:03:46;13.23;;;6.80;;
38465;SDS011;24244;51.950;5.902;2024-01-06T13:06:13;12.32;;;5.53;;
38465;SDS011;24244;51.950;5.902;2024-01-06T13:08:42;13.63;;;6.63;;
38465;SDS011;24244;51.950;5.902;2024-01-06T13:11:11;12.80;;;7.13;;
38465;SDS011;24244;51.950;5.902;2024-01-06T13:13:37;12.10;;;6.22;;
38465;SDS011;24244;51.950;5.902;2024-01-06T13:16:05;14.15;;;6.28;;
38465;SDS011;24244;51.950;5.902;2024-01-06T13:18:32;13.52;;;6.30;;
38465;SDS011;24244;51.950;5.902;2024-01-06T13:20:59;14.25;;;6.55;;
38465;SDS011;24244;51.950;5.902;2024-01-06T13:23:26;15.32;;;6.72;;
38465;SDS011;24244;51.950;5.902;2024-01-06T13:25:53;15.07;;;6.97;;
38465;SDS011;24244;51.950;5.902;2024-01-06T13:28:22;12.88;;;7.40;;
38465;SDS011;24244;51.950;5.902;2024-01-06T13:30:50;12.43;;;6.05;;
38465;SDS011;24244;51.950;5.902;2024-01-06T13:33:17;11.73;;;5.78;;
38465;SDS011;24244;51.950;5.902;2024-01-06T13:35:45;12.32;;;6.35;;
38465;SDS011;24244;51.950;5.902;2024-01-06T13:38:11;12.63;;;6.90;;
38465;SDS011;24244;51.950;5.902;2024-01-06T13:40:38;15.30;;;7.53;;
38465;SDS011;24244;51.950;5.902;2024-01-06T13:43:06;14.70;;;7.05;;
38465;SDS011;24244;51.950;5.902;2024-01-06T13:48:44;13.48;;;6.40;;
38465;SDS011;24244;51.950;5.902;2024-01-06T13:51:11;12.10;;;6.00;;
38465;SDS011;24244;51.950;5.902;2024-01-06T13:53:38;12.13;;;5.72;;
38465;SDS011;24244;51.950;5.902;2024-01-06T13:56:05;15.52;;;6.82;;
38465;SDS011;24244;51.950;5.902;2024-01-06T13:58:34;12.23;;;6.63;;
38465;SDS011;24244;51.950;5.902;2024-01-06T14:01:05;14.90;;;7.80;;
38465;SDS011;24244;51.950;5.902;2024-01-06T14:03:32;15.35;;;6.85;;
38465;SDS011;24244;51.950;5.902;2024-01-06T14:06:00;13.50;;;7.32;;
38465;SDS011;24244;51.950;5.902;2024-01-06T14:08:28;15.20;;;7.07;;
38465;SDS011;24244;51.950;5.902;2024-01-06T14:10:55;18.50;;;8.18;;
38465;SDS011;24244;51.950;5.902;2024-01-06T14:13:22;17.38;;;8.65;;
38465;SDS011;24244;51.950;5.902;2024-01-06T14:15:49;14.65;;;6.47;;
38465;SDS011;24244;51.950;5.902;2024-01-06T14:18:16;14.23;;;6.20;;
38465;SDS011;24244;51.950;5.902;2024-01-06T14:20:43;15.98;;;7.13;;
38465;SDS011;24244;51.950;5.902;2024-01-06T14:23:12;19.75;;;8.73;;
38465;SDS011;24244;51.950;5.902;2024-01-06T14:25:39;20.08;;;8.23;;
38465;SDS011;24244;51.950;5.902;2024-01-06T14:28:09;14.73;;;7.25;;
38465;SDS011;24244;51.950;5.902;2024-01-06T14:30:36;17.95;;;8.90;;
38465;SDS011;24244;51.950;5.902;2024-01-06T14:33:03;16.13;;;7.28;;
38465;SDS011;24244;51.950;5.902;2024-01-06T14:35:30;19.33;;;9.38;;
38465;SDS011;24244;51.950;5.902;2024-01-06T14:37:57;14.98;;;7.63;;
38465;SDS011;24244;51.950;5.902;2024-01-06T14:40:28;16.15;;;8.43;;
38465;SDS011;24244;51.950;5.902;2024-01-06T14:42:55;18.60;;;8.10;;
38465;SDS011;24244;51.950;5.902;2024-01-06T14:45:24;18.05;;;8.48;;
38465;SDS011;24244;51.950;5.902;2024-01-06T14:47:51;16.67;;;7.63;;